Time;durP1;ratioP1;P1;durP2;ratioP2;P2;SDS_P1;SDS_P2;PMS_P1;PMS_P2;Temp;Humidity;BMP_temperature;BMP_pressure;BME280_temperature;BME280_humidity;BME280_pressure;Samples;Min_cycle;Max_cycle;Signal;HPM_P1;HPM_P2
2021/03/18 00:01:41;;;;;;;4.78;1.20;;;3.30;99.90;;;;;;5073565;28;20052;-85
2021/03/18 00:04:08;;;;;;;3.70;2.45;;;3.20;99.90;;;;;;5076447;28;20475;-85
2021/03/18 00:06:34;;;;;;;7.20;2.30;;;3.20;99.90;;;;;;5068265;28;20099;-84
2021/03/18 00:09:00;;;;;;;4.07;2.28;;;3.20;99.90;;;;;;5071596;28;20051;-84
2021/03/18 00:11:26;;;;;;;5.18;2.10;;;3.20;99.90;;;;;;5070399;28;20064;-85
2021/03/18 00:13:52;;;;;;;8.05;1.98;;;3.10;99.90;;;;;;5093268;28;20024;-84
2021/03/18 00:16:19;;;;;;;4.55;1.88;;;3.10;99.90;;;;;;5073299;28;20023;-84
2021/03/18 00:18:53;;;;;;;7.40;2.05;;;3.10;99.90;;;;;;5075411;28;20373;-84
2021/03/18 00:21:19;;;;;;;3.90;2.42;;;3.10;99.90;;;;;;5107871;28;20036;-84
2021/03/18 00:23:46;;;;;;;3.60;1.73;;;3.00;99.90;;;;;;5072762;28;20122;-84
2021/03/18 00:26:12;;;;;;;3.15;1.67;;;3.00;99.90;;;;;;5070681;28;20545;-84
2021/03/18 00:28:37;;;;;;;4.93;1.70;;;3.00;99.90;;;;;;5071028;28;20037;-85
2021/03/18 00:31:06;;;;;;;7.60;2.58;;;3.00;99.90;;;;;;5072042;28;20025;-84
2021/03/18 00:33:32;;;;;;;5.43;2.13;;;3.00;99.90;;;;;;5067043;28;20020;-84
2021/03/18 00:35:58;;;;;;;5.32;1.80;;;3.00;99.90;;;;;;5107529;28;20539;-83
2021/03/18 00:38:25;;;;;;;3.95;1.73;;;3.00;99.90;;;;;;5086257;28;20058;-84
2021/03/18 00:40:59;;;;;;;4.28;1.95;;;2.90;99.90;;;;;;5090944;28;20099;-85
2021/03/18 00:43:25;;;;;;;3.10;1.40;;;2.90;99.90;;;;;;5086370;28;20120;-85
2021/03/18 00:45:51;;;;;;;2.38;1.05;;;2.90;99.90;;;;;;5085759;28;20527;-84
2021/03/18 00:48:19;;;;;;;4.35;1.55;;;2.90;99.90;;;;;;5072378;28;20021;-84
2021/03/18 00:50:53;;;;;;;6.78;1.60;;;2.80;99.90;;;;;;5072982;28;20054;-84
2021/03/18 00:53:24;;;;;;;4.28;1.60;;;2.80;99.90;;;;;;5107974;28;20486;-84
2021/03/18 00:55:51;;;;;;;4.50;2.05;;;2.70;99.90;;;;;;5069430;28;20017;-84
2021/03/18 00:58:19;;;;;;;7.78;2.55;;;2.70;99.90;;;;;;5073862;28;20035;-85
2021/03/18 01:00:51;;;;;;;6.35;2.58;;;2.70;99.90;;;;;;5072312;28;20024;-85
2021/03/18 01:03:17;;;;;;;7.15;2.28;;;2.60;99.90;;;;;;5091554;28;20028;-84
2021/03/18 01:05:49;;;;;;;7.07;2.65;;;2.60;99.90;;;;;;5075354;28;20049;-84
2021/03/18 01:08:18;;;;;;;6.32;2.85;;;2.60;99.90;;;;;;5109080;28;20537;-84
2021/03/18 01:10:49;;;;;;;7.97;2.20;;;2.70;99.90;;;;;;5065852;28;20050;-85
2021/03/18 01:13:21;;;;;;;4.85;1.77;;;2.70;99.90;;;;;;5072545;28;20107;-85
2021/03/18 01:15:49;;;;;;;4.25;2.05;;;2.70;99.90;;;;;;5086003;28;20116;-85
2021/03/18 01:18:15;;;;;;;5.57;1.83;;;2.70;99.90;;;;;;5066150;28;20032;-85
2021/03/18 01:20:41;;;;;;;8.70;2.50;;;2.70;99.90;;;;;;5089163;28;20036;-85
2021/03/18 01:23:06;;;;;;;8.63;2.72;;;2.70;99.90;;;;;;5060525;28;20027;-85
2021/03/18 01:25:32;;;;;;;3.72;1.80;;;2.70;99.90;;;;;;5072328;28;20028;-84
2021/03/18 01:27:57;;;;;;;6.90;2.85;;;2.70;99.90;;;;;;5072218;28;20476;-84
2021/03/18 01:30:23;;;;;;;6.80;2.20;;;2.80;99.90;;;;;;5072315;28;20009;-85
2021/03/18 01:32:50;;;;;;;5.05;2.20;;;2.80;99.90;;;;;;5071922;28;20020;-85
2021/03/18 01:35:18;;;;;;;2.55;1.60;;;2.80;99.90;;;;;;5065858;28;20086;-85
2021/03/18 01:37:44;;;;;;;5.03;2.03;;;2.80;99.90;;;;;;5073836;28;20077;-85
2021/03/18 01:40:16;;;;;;;4.80;1.33;;;2.80;99.90;;;;;;5069238;28;20074;-85
2021/03/18 01:42:42;;;;;;;5.10;1.75;;;2.80;99.90;;;;;;5071558;28;20028;-85
2021/03/18 01:45:09;;;;;;;3.83;1.80;;;2.80;99.90;;;;;;5066657;28;20494;-85
2021/03/18 01:47:36;;;;;;;4.55;1.20;;;2.80;99.90;;;;;;5102870;28;20046;-85
2021/03/18 01:50:05;;;;;;;6.65;1.70;;;2.70;99.90;;;;;;5066041;28;20013;-85
2021/03/18 01:52:31;;;;;;;2.47;1.30;;;2.60;99.90;;;;;;5086132;28;20054;-85
2021/03/18 01:54:56;;;;;;;2.95;1.10;;;2.50;99.90;;;;;;5092644;28;20027;-86
2021/03/18 01:57:22;;;;;;;3.35;1.83;;;2.50;99.90;;;;;;5074669;28;20472;-86
2021/03/18 01:59:48;;;;;;;4.50;1.73;;;2.50;99.90;;;;;;5089620;28;20069;-86
2021/03/18 02:02:13;;;;;;;4.10;1.55;;;2.50;99.90;;;;;;5065371;28;20059;-86
2021/03/18 02:04:39;;;;;;;4.25;1.48;;;2.50;99.90;;;;;;5090945;28;20032;-86
2021/03/18 02:07:04;;;;;;;6.63;1.38;;;2.50;99.90;;;;;;5088675;28;20023;-85
2021/03/18 02:09:30;;;;;;;3.80;1.73;;;2.50;99.90;;;;;;5073987;28;20047;-86
2021/03/18 02:11:56;;;;;;;4.43;1.58;;;2.50;99.90;;;;;;5092454;28;20028;-86
2021/03/18 02:14:21;;;;;;;5.10;1.90;;;2.50;99.90;;;;;;5087466;28;20028;-85
2021/03/18 02:16:51;;;;;;;6.50;1.88;;;2.50;99.90;;;;;;5074087;28;20074;-86
2021/03/18 02:19:31;;;;;;;8.45;2.53;;;2.40;99.90;;;;;;5103504;28;20062;-86
2021/03/18 02:22:20;;;;;;;6.63;2.20;;;2.20;99.90;;;;;;5091416;28;20028;-86
2021/03/18 02:25:22;;;;;;;6.53;2.17;;;2.20;99.90;;;;;;5105740;28;20049;-85
2021/03/18 02:28:22;;;;;;;5.30;2.20;;;2.10;99.90;;;;;;5032017;28;20367;-86
2021/03/18 02:31:13;;;;;;;7.38;2.17;;;2.10;99.90;;;;;;5071148;28;20012;-86
2021/03/18 02:34:14;;;;;;;4.32;1.80;;;2.20;99.90;;;;;;5087589;28;20036;-86
2021/03/18 02:36:45;;;;;;;3.85;1.75;;;2.20;99.90;;;;;;5071723;28;20055;-86
2021/03/18 02:39:20;;;;;;;4.07;1.63;;;2.20;99.90;;;;;;5071369;28;20017;-86
2021/03/18 02:41:52;;;;;;;3.92;1.23;;;2.20;99.90;;;;;;5068508;28;20067;-86
2021/03/18 02:44:21;;;;;;;7.22;1.88;;;2.10;99.90;;;;;;5084626;28;20024;-86
2021/03/18 02:46:59;;;;;;;4.63;1.63;;;2.10;99.90;;;;;;5071045;28;20490;-86
2021/03/18 02:49:26;;;;;;;2.70;0.90;;;2.10;99.90;;;;;;5070330;28;20016;-86
2021/03/18 02:51:52;;;;;;;5.45;1.20;;;2.10;99.90;;;;;;5104374;28;20413;-86
2021/03/18 02:54:19;;;;;;;5.65;1.50;;;2.10;99.90;;;;;;5065160;28;20048;-86
2021/03/18 02:56:47;;;;;;;3.15;1.10;;;2.10;99.90;;;;;;5098475;28;20051;-86
2021/03/18 02:59:20;;;;;;;2.60;1.02;;;2.10;99.90;;;;;;5086282;28;20473;-86
2021/03/18 03:01:46;;;;;;;3.05;1.23;;;2.10;99.90;;;;;;5067667;28;20040;-86
2021/03/18 03:04:13;;;;;;;4.82;1.20;;;2.00;99.90;;;;;;5067721;28;20494;-87
2021/03/18 03:06:40;;;;;;;2.72;1.13;;;2.00;99.90;;;;;;5089974;28;20024;-86
2021/03/18 03:09:07;;;;;;;2.97;1.00;;;2.10;99.90;;;;;;5071055;28;20024;-87
2021/03/18 03:11:36;;;;;;;3.03;1.15;;;2.00;99.90;;;;;;5062439;28;20040;-86
2021/03/18 03:14:03;;;;;;;2.42;1.45;;;2.00;99.90;;;;;;5064350;28;20487;-85
2021/03/18 03:16:29;;;;;;;4.60;1.63;;;2.00;99.90;;;;;;5071353;28;20537;-86
2021/03/18 03:18:56;;;;;;;6.22;2.53;;;2.00;99.90;;;;;;5104458;28;20020;-86
2021/03/18 03:21:24;;;;;;;6.10;2.17;;;1.90;99.90;;;;;;5075694;28;20494;-86
2021/03/18 03:23:50;;;;;;;6.78;2.47;;;2.00;99.90;;;;;;5085959;28;20067;-86
2021/03/18 03:26:23;;;;;;;3.53;2.00;;;2.00;99.90;;;;;;5113381;28;20039;-86
2021/03/18 03:28:50;;;;;;;5.57;2.17;;;2.00;99.90;;;;;;5093738;28;20024;-86
2021/03/18 03:31:16;;;;;;;4.40;1.33;;;2.00;99.90;;;;;;5092859;28;20020;-86
2021/03/18 03:33:42;;;;;;;5.45;2.10;;;2.10;99.90;;;;;;5077097;28;20128;-86
2021/03/18 03:36:08;;;;;;;4.45;2.80;;;2.10;99.90;;;;;;5073943;28;20043;-86
2021/03/18 03:38:34;;;;;;;6.90;1.88;;;2.20;99.90;;;;;;5095797;28;20028;-86
2021/03/18 03:41:00;;;;;;;4.65;1.85;;;2.20;99.90;;;;;;5075727;28;20047;-87
2021/03/18 03:43:26;;;;;;;4.50;1.80;;;2.20;99.90;;;;;;5077070;28;20020;-87
2021/03/18 03:45:53;;;;;;;3.83;1.77;;;2.20;99.90;;;;;;5089138;28;20016;-86
2021/03/18 03:48:20;;;;;;;4.95;1.60;;;2.20;99.90;;;;;;5092292;28;20051;-87
2021/03/18 03:50:46;;;;;;;4.13;1.48;;;2.20;99.90;;;;;;5076897;28;20020;-87
2021/03/18 03:53:26;;;;;;;1.98;1.27;;;2.20;99.90;;;;;;5092452;28;20025;-86
2021/03/18 03:56:09;;;;;;;3.45;1.25;;;2.20;99.90;;;;;;5088573;28;20020;-87
2021/03/18 03:58:47;;;;;;;5.07;1.10;;;2.20;99.90;;;;;;5087017;28;20127;-86
2021/03/18 04:01:29;;;;;;;2.00;1.10;;;2.20;99.90;;;;;;5086094;28;20025;-86
2021/03/18 04:04:06;;;;;;;5.35;1.60;;;2.10;99.90;;;;;;5068706;28;20024;-87
2021/03/18 04:06:37;;;;;;;5.72;1.48;;;2.00;99.90;;;;;;5067927;28;20070;-86
2021/03/18 04:09:06;;;;;;;5.55;1.75;;;1.90;99.90;;;;;;5075759;28;20093;-86
2021/03/18 04:11:35;;;;;;;6.40;1.47;;;1.90;99.90;;;;;;5065770;28;20123;-87
2021/03/18 04:14:05;;;;;;;2.28;1.38;;;1.90;99.90;;;;;;5089471;28;20017;-87
2021/03/18 04:16:32;;;;;;;3.70;1.85;;;1.90;99.90;;;;;;5070881;28;20021;-87
2021/03/18 04:18:59;;;;;;;3.13;1.50;;;2.00;99.90;;;;;;5066481;28;20033;-87
2021/03/18 04:21:25;;;;;;;2.28;1.17;;;1.90;99.90;;;;;;5088606;28;20065;-87
2021/03/18 04:23:52;;;;;;;4.35;1.25;;;1.90;99.90;;;;;;5063600;28;20024;-87
2021/03/18 04:26:21;;;;;;;5.13;1.15;;;1.90;99.90;;;;;;5074077;28;20020;-87
2021/03/18 04:28:47;;;;;;;3.58;1.35;;;1.90;99.90;;;;;;5068734;28;20704;-87
2021/03/18 04:31:14;;;;;;;2.15;1.10;;;1.80;99.90;;;;;;5071781;28;20016;-87
2021/03/18 04:33:40;;;;;;;2.83;1.20;;;1.80;99.90;;;;;;5077590;28;20487;-87
2021/03/18 04:36:06;;;;;;;3.47;1.00;;;1.80;99.90;;;;;;5087058;28;20085;-87
2021/03/18 04:38:33;;;;;;;3.50;1.25;;;1.70;99.90;;;;;;5084815;28;20077;-87
2021/03/18 04:40:59;;;;;;;2.17;1.10;;;1.70;99.90;;;;;;5088067;28;20039;-87
2021/03/18 04:43:26;;;;;;;4.10;1.55;;;1.60;99.90;;;;;;5075965;28;20027;-87
2021/03/18 04:45:53;;;;;;;4.32;1.80;;;1.50;99.90;;;;;;5067850;28;20099;-87
2021/03/18 04:48:20;;;;;;;4.15;1.70;;;1.50;99.90;;;;;;5062491;28;20026;-87
2021/03/18 04:50:47;;;;;;;6.30;2.22;;;1.50;99.90;;;;;;5076118;28;20023;-87
2021/03/18 04:53:14;;;;;;;4.65;2.10;;;1.50;99.90;;;;;;5085787;28;20070;-87
2021/03/18 04:55:39;;;;;;;6.70;2.72;;;1.50;99.90;;;;;;5070501;28;20067;-87
2021/03/18 04:58:11;;;;;;;6.20;2.22;;;1.60;99.90;;;;;;5062780;28;20044;-87
2021/03/18 05:00:38;;;;;;;5.85;2.47;;;1.60;99.90;;;;;;5087643;28;20064;-87
2021/03/18 05:03:07;;;;;;;6.13;1.75;;;1.70;99.90;;;;;;5064221;28;20173;-87
2021/03/18 05:05:35;;;;;;;3.83;1.70;;;1.70;99.90;;;;;;5072971;28;20095;-87
2021/03/18 05:08:01;;;;;;;2.53;1.60;;;1.70;99.90;;;;;;5064098;28;20020;-87
2021/03/18 05:10:31;;;;;;;2.90;1.27;;;1.80;99.90;;;;;;5091832;28;20063;-87
2021/03/18 05:12:59;;;;;;;4.65;1.77;;;1.80;99.90;;;;;;5073743;28;20032;-86
2021/03/18 05:15:26;;;;;;;6.03;1.80;;;1.90;99.90;;;;;;5068001;28;20393;-87
2021/03/18 05:17:53;;;;;;;3.80;1.70;;;1.90;99.90;;;;;;5066946;28;20036;-87
2021/03/18 05:20:24;;;;;;;3.05;1.40;;;2.00;99.90;;;;;;5090808;28;20035;-87
2021/03/18 05:22:53;;;;;;;2.42;1.23;;;2.00;99.90;;;;;;5092213;28;20024;-87
2021/03/18 05:25:21;;;;;;;2.97;1.20;;;2.00;99.90;;;;;;5063913;28;20027;-87
2021/03/18 05:27:47;;;;;;;2.33;1.10;;;2.00;99.90;;;;;;5093676;28;20328;-86
2021/03/18 05:30:14;;;;;;;2.88;1.10;;;2.00;99.90;;;;;;5070065;28;20440;-87
2021/03/18 05:32:42;;;;;;;5.30;1.38;;;2.10;99.90;;;;;;5070901;28;20035;-87
2021/03/18 05:35:09;;;;;;;2.33;1.10;;;2.10;99.90;;;;;;5074622;28;20101;-87
2021/03/18 05:37:35;;;;;;;4.13;1.33;;;2.10;99.90;;;;;;5068656;28;20532;-87
2021/03/18 05:40:03;;;;;;;3.30;1.58;;;2.20;99.90;;;;;;5084145;28;20024;-87
2021/03/18 05:42:29;;;;;;;3.95;1.52;;;2.30;99.90;;;;;;5067054;28;20027;-86
2021/03/18 05:44:54;;;;;;;3.83;1.42;;;2.30;99.90;;;;;;5070805;28;20017;-87
2021/03/18 05:47:20;;;;;;;3.90;1.65;;;2.40;99.90;;;;;;5085680;28;20020;-87
2021/03/18 05:49:46;;;;;;;8.40;1.42;;;2.40;99.90;;;;;;5102238;28;20021;-87
2021/03/18 05:52:12;;;;;;;3.53;1.35;;;2.40;99.90;;;;;;5068776;28;20025;-87
2021/03/18 05:54:45;;;;;;;8.40;2.40;;;2.40;99.90;;;;;;5085786;28;20484;-87
2021/03/18 05:57:11;;;;;;;8.15;2.08;;;2.40;99.90;;;;;;5068669;28;20027;-87
2021/03/18 05:59:38;;;;;;;4.57;1.90;;;2.30;99.90;;;;;;5104920;28;20380;-87
2021/03/18 06:02:03;;;;;;;6.63;2.63;;;2.40;99.90;;;;;;5070596;28;20035;-87
2021/03/18 06:04:29;;;;;;;11.30;4.53;;;2.30;99.90;;;;;;5062103;28;20368;-87
2021/03/18 06:06:55;;;;;;;8.15;4.07;;;2.30;99.90;;;;;;5075931;28;20062;-87
2021/03/18 06:09:21;;;;;;;9.70;4.22;;;2.20;99.90;;;;;;5077765;28;20391;-86
2021/03/18 06:11:47;;;;;;;10.85;4.63;;;2.20;99.90;;;;;;5094345;28;20106;-87
2021/03/18 06:14:13;;;;;;;8.90;4.00;;;2.20;99.90;;;;;;5075135;28;20020;-87
2021/03/18 06:16:40;;;;;;;10.80;4.90;;;2.20;99.90;;;;;;5074969;28;20042;-87
2021/03/18 06:19:07;;;;;;;10.32;4.25;;;2.30;99.90;;;;;;5075082;28;20021;-87
2021/03/18 06:21:47;;;;;;;10.43;5.43;;;2.20;99.90;;;;;;5074948;28;20020;-86
2021/03/18 06:24:14;;;;;;;12.75;5.70;;;2.20;99.90;;;;;;5074995;28;20073;-86
2021/03/18 06:26:40;;;;;;;13.20;5.47;;;2.20;99.90;;;;;;5080250;28;20073;-85
2021/03/18 06:29:36;;;;;;;11.30;4.75;;;2.20;99.90;;;;;;5069475;28;20025;-83
2021/03/18 06:32:13;;;;;;;14.73;5.40;;;2.20;99.90;;;;;;5094705;28;20059;-84
2021/03/18 06:34:49;;;;;;;9.50;4.80;;;2.30;99.90;;;;;;5074590;28;20028;-83
2021/03/18 06:37:35;;;;;;;9.73;5.28;;;2.30;99.90;;;;;;5108424;28;20019;-83
2021/03/18 06:40:15;;;;;;;13.82;5.38;;;2.30;99.90;;;;;;5074857;28;20055;-84
2021/03/18 06:42:43;;;;;;;20.88;5.93;;;2.30;99.90;;;;;;5074658;28;20028;-84
2021/03/18 06:45:11;;;;;;;14.00;6.88;;;2.30;99.90;;;;;;5092746;28;20028;-84
2021/03/18 06:47:54;;;;;;;12.95;5.53;;;2.30;99.90;;;;;;5077366;28;20024;-84
2021/03/18 06:50:32;;;;;;;15.82;6.47;;;2.40;99.90;;;;;;5079754;28;20024;-84
2021/03/18 06:52:58;;;;;;;11.32;5.82;;;2.30;99.90;;;;;;5098997;28;20081;-84
2021/03/18 06:55:32;;;;;;;11.52;5.57;;;2.40;99.90;;;;;;5098746;28;20020;-84
2021/03/18 06:58:20;;;;;;;12.18;6.07;;;2.40;99.90;;;;;;5098986;28;20066;-85
2021/03/18 07:00:52;;;;;;;12.43;6.13;;;2.50;99.90;;;;;;5117113;28;20446;-84
2021/03/18 07:03:35;;;;;;;18.52;7.28;;;2.50;99.90;;;;;;5117246;28;20084;-84
2021/03/18 07:06:02;;;;;;;9.40;5.25;;;2.50;99.90;;;;;;5098974;28;20020;-84
2021/03/18 07:08:31;;;;;;;10.63;5.07;;;2.50;99.90;;;;;;5098887;28;20047;-85
2021/03/18 07:10:58;;;;;;;12.82;5.80;;;2.60;99.90;;;;;;5098610;28;20425;-85
2021/03/18 07:13:30;;;;;;;9.40;5.50;;;2.70;99.90;;;;;;5095392;28;20020;-84
2021/03/18 07:15:58;;;;;;;9.57;5.40;;;2.80;99.90;;;;;;5103720;28;20047;-84
2021/03/18 07:18:25;;;;;;;22.13;8.02;;;2.80;99.90;;;;;;5088417;28;20081;-84
2021/03/18 07:20:58;;;;;;;18.98;9.02;;;2.90;99.90;;;;;;5089472;28;20084;-84
2021/03/18 07:23:37;;;;;;;18.67;7.70;;;2.90;99.90;;;;;;5088281;28;20028;-84
2021/03/18 07:26:15;;;;;;;16.67;8.48;;;3.00;99.90;;;;;;5112269;28;20538;-84
2021/03/18 07:28:43;;;;;;;19.17;8.98;;;3.00;99.90;;;;;;5104443;28;20028;-84
2021/03/18 07:31:10;;;;;;;19.23;8.55;;;3.00;99.90;;;;;;5104862;28;20533;-84
2021/03/18 07:33:36;;;;;;;15.25;7.88;;;3.10;99.90;;;;;;5106482;28;20498;-84
2021/03/18 07:36:03;;;;;;;20.40;8.65;;;3.20;99.90;;;;;;5113470;28;20024;-84
2021/03/18 07:38:29;;;;;;;14.70;8.05;;;3.30;99.90;;;;;;5081322;28;20550;-84
2021/03/18 07:40:56;;;;;;;17.60;9.80;;;3.40;99.90;;;;;;5078059;28;20066;-83
2021/03/18 07:43:24;;;;;;;14.93;7.63;;;3.40;99.90;;;;;;5076341;28;20145;-84
2021/03/18 07:45:51;;;;;;;15.27;7.07;;;3.50;99.90;;;;;;5075537;28;20016;-84
2021/03/18 07:48:22;;;;;;;14.85;8.77;;;3.60;99.90;;;;;;5088616;28;20035;-83
2021/03/18 07:50:49;;;;;;;16.02;7.43;;;3.70;99.90;;;;;;5076086;28;20490;-87
2021/03/18 07:53:17;;;;;;;13.80;7.35;;;3.70;99.90;;;;;;5058397;28;20071;-88
2021/03/18 07:55:42;;;;;;;19.55;8.38;;;3.80;99.90;;;;;;5057885;28;20031;-86
2021/03/18 07:58:08;;;;;;;14.55;6.47;;;3.90;99.90;;;;;;5091074;28;20028;-87
2021/03/18 08:00:34;;;;;;;15.40;8.02;;;3.90;99.90;;;;;;5075573;28;20094;-87
2021/03/18 08:03:22;;;;;;;13.10;6.90;;;4.00;99.90;;;;;;5075290;28;20036;-86
2021/03/18 08:05:48;;;;;;;13.30;7.18;;;4.10;99.90;;;;;;5090975;28;20373;-86
2021/03/18 08:08:36;;;;;;;16.70;7.72;;;4.10;99.90;;;;;;5075618;28;20032;-86
2021/03/18 08:11:07;;;;;;;17.40;8.18;;;4.20;99.90;;;;;;5057249;28;20048;-86
2021/03/18 08:13:36;;;;;;;15.02;8.43;;;4.20;99.90;;;;;;5057388;28;20029;-86
2021/03/18 08:16:05;;;;;;;18.23;8.05;;;4.30;99.90;;;;;;5070516;28;20492;-85
2021/03/18 08:18:32;;;;;;;22.55;8.45;;;4.30;99.90;;;;;;5077098;28;20027;-85
2021/03/18 08:20:59;;;;;;;18.02;7.50;;;4.30;99.90;;;;;;5077181;28;20036;-84
2021/03/18 08:23:27;;;;;;;17.83;7.85;;;4.30;99.90;;;;;;5076958;28;20028;-83
2021/03/18 08:26:01;;;;;;;16.30;7.63;;;4.30;99.90;;;;;;5076897;28;20400;-83
2021/03/18 08:28:36;;;;;;;15.27;7.40;;;4.40;99.90;;;;;;5076791;28;20020;-83
2021/03/18 08:31:07;;;;;;;14.20;7.35;;;4.40;99.90;;;;;;5095070;28;20437;-83
2021/03/18 08:33:35;;;;;;;18.23;7.75;;;4.50;99.90;;;;;;5076813;28;20034;-83
2021/03/18 08:36:19;;;;;;;19.60;7.57;;;4.60;99.90;;;;;;5077321;28;20035;-83
2021/03/18 08:38:45;;;;;;;14.43;7.40;;;4.70;99.90;;;;;;5068398;28;20119;-82
2021/03/18 08:41:44;;;;;;;15.63;6.97;;;4.80;99.90;;;;;;5051359;28;20062;-82
2021/03/18 08:44:13;;;;;;;14.03;8.57;;;4.90;99.90;;;;;;5042900;28;20138;-83
2021/03/18 08:46:42;;;;;;;13.13;6.43;;;5.00;99.90;;;;;;5078398;28;20035;-82
2021/03/18 08:49:28;;;;;;;10.32;5.93;;;5.10;99.90;;;;;;5085260;28;20024;-81
2021/03/18 08:51:54;;;;;;;13.25;7.40;;;5.30;99.90;;;;;;5084544;28;20050;-81
2021/03/18 08:54:43;;;;;;;16.30;6.68;;;5.40;99.90;;;;;;5093368;28;20051;-83
2021/03/18 08:57:11;;;;;;;14.77;8.87;;;5.50;99.90;;;;;;5114331;28;20383;-80
2021/03/18 08:59:38;;;;;;;13.57;6.47;;;5.50;99.90;;;;;;5096446;28;20546;-82
2021/03/18 09:02:09;;;;;;;13.80;6.70;;;5.60;99.90;;;;;;5114744;28;20028;-82
2021/03/18 09:04:39;;;;;;;14.73;6.82;;;5.60;99.90;;;;;;5114604;28;20479;-82
2021/03/18 09:07:08;;;;;;;;;;;5.70;99.90;;;;;;5096821;28;20020;-83
2021/03/18 09:09:34;;;;;;;17.40;7.53;;;5.70;99.90;;;;;;5053957;28;19924;-82
2021/03/18 09:12:01;;;;;;;16.38;6.72;;;5.70;99.90;;;;;;5066890;28;20012;-83
2021/03/18 09:14:27;;;;;;;21.80;7.65;;;5.80;99.90;;;;;;5102070;28;20058;-83
2021/03/18 09:17:10;;;;;;;20.45;6.68;;;5.80;99.90;;;;;;5104903;28;20047;-83
2021/03/18 09:19:36;;;;;;;18.52;6.03;;;5.80;99.90;;;;;;5098913;28;20024;-82
2021/03/18 09:22:06;;;;;;;20.90;6.28;;;5.80;99.90;;;;;;5085345;28;20035;-83
2021/03/18 09:24:39;;;;;;;21.00;6.22;;;5.80;99.90;;;;;;5086414;28;20020;-82
2021/03/18 09:27:10;;;;;;;23.35;6.57;;;5.90;99.90;;;;;;5075745;28;20456;-83
2021/03/18 09:29:36;;;;;;;19.55;6.13;;;5.90;99.90;;;;;;5093747;28;20099;-83
2021/03/18 09:32:07;;;;;;;17.77;6.25;;;5.90;99.90;;;;;;5109482;28;20028;-83
2021/03/18 09:34:41;;;;;;;22.25;6.93;;;6.00;99.90;;;;;;5075298;28;20073;-83
2021/03/18 09:37:07;;;;;;;23.98;5.35;;;6.10;99.90;;;;;;5075700;28;20115;-83
2021/03/18 09:39:33;;;;;;;25.45;6.45;;;6.10;99.90;;;;;;5109408;28;20123;-82
2021/03/18 09:42:05;;;;;;;26.35;6.70;;;6.20;99.90;;;;;;5075420;28;20123;-82
2021/03/18 09:44:31;;;;;;;23.15;6.45;;;6.20;99.90;;;;;;5091797;28;20100;-82
2021/03/18 09:47:04;;;;;;;23.80;6.53;;;6.20;99.90;;;;;;5093447;28;20032;-82
2021/03/18 09:49:37;;;;;;;19.40;5.57;;;6.30;99.90;;;;;;5050366;28;20530;-82
2021/03/18 09:52:06;;;;;;;24.90;7.22;;;6.40;99.90;;;;;;5061780;28;20024;-82
2021/03/18 09:54:32;;;;;;;22.73;5.35;;;6.50;99.90;;;;;;5083764;28;20020;-83
2021/03/18 09:57:01;;;;;;;24.35;6.30;;;6.60;99.90;;;;;;5085689;28;20054;-83
2021/03/18 09:59:29;;;;;;;22.70;5.75;;;6.70;99.90;;;;;;5082868;28;20068;-82
2021/03/18 10:01:55;;;;;;;25.20;5.97;;;6.80;99.90;;;;;;5101778;28;20016;-83
2021/03/18 10:04:21;;;;;;;21.38;5.28;;;6.90;99.90;;;;;;5086739;28;20020;-83
2021/03/18 10:06:53;;;;;;;25.05;4.68;;;7.00;99.90;;;;;;5062256;28;20064;-83
2021/03/18 10:09:24;;;;;;;24.27;5.18;;;7.20;99.90;;;;;;5073627;28;20024;-83
2021/03/18 10:11:53;;;;;;;27.48;5.20;;;7.40;99.90;;;;;;5054943;28;20384;-82
2021/03/18 10:14:19;;;;;;;13.38;4.07;;;7.60;99.90;;;;;;5045528;28;20467;-84
2021/03/18 10:16:50;;;;;;;17.25;4.30;;;7.80;99.90;;;;;;5051117;28;20021;-86
2021/03/18 10:19:17;;;;;;;23.73;6.38;;;8.30;99.90;;;;;;5083063;28;20020;-85
2021/03/18 10:21:44;;;;;;;20.95;4.68;;;8.50;99.90;;;;;;5074404;28;20116;-85
2021/03/18 10:24:12;;;;;;;23.65;5.10;;;8.60;99.90;;;;;;5074452;28;20024;-85
2021/03/18 10:26:38;;;;;;;21.88;5.47;;;8.90;99.90;;;;;;5068413;28;20032;-85
2021/03/18 10:29:06;;;;;;;14.52;4.25;;;9.00;99.90;;;;;;5080766;28;20468;-85
2021/03/18 10:31:32;;;;;;;11.20;3.25;;;9.50;99.90;;;;;;5072510;28;20044;-86
2021/03/18 10:34:01;;;;;;;21.27;4.65;;;10.30;99.90;;;;;;5064881;28;20036;-85
2021/03/18 10:36:35;;;;;;;22.33;6.25;;;10.60;99.30;;;;;;5058269;28;20123;-88
2021/03/18 10:39:04;;;;;;;13.80;4.15;;;10.60;97.60;;;;;;5074795;28;20035;-84
2021/03/18 10:41:30;;;;;;;18.30;5.53;;;10.20;97.00;;;;;;5082019;28;20387;-84
2021/03/18 10:43:56;;;;;;;19.48;4.85;;;9.70;97.30;;;;;;5041229;28;20024;-83
2021/03/18 10:46:30;;;;;;;18.70;4.78;;;9.40;98.10;;;;;;5019570;28;20025;-85
2021/03/18 10:48:57;;;;;;;23.15;5.93;;;9.80;99.20;;;;;;5030596;28;20024;-84
2021/03/18 10:51:23;;;;;;;30.15;4.97;;;9.90;98.90;;;;;;5051014;28;20021;-83
2021/03/18 10:53:50;;;;;;;27.48;4.68;;;9.60;97.60;;;;;;5063079;28;20062;-83
2021/03/18 10:56:25;;;;;;;18.02;3.90;;;9.10;97.40;;;;;;5056642;28;20032;-83
2021/03/18 10:58:52;;;;;;;27.85;6.13;;;8.90;98.60;;;;;;5083296;28;20032;-82
2021/03/18 11:01:23;;;;;;;23.08;4.72;;;8.70;98.60;;;;;;5081193;28;20020;-83
2021/03/18 11:03:50;;;;;;;24.58;5.63;;;8.70;99.20;;;;;;5062743;28;20031;-82
2021/03/18 11:06:23;;;;;;;28.50;5.57;;;8.50;99.50;;;;;;5058554;28;20024;-82
2021/03/18 11:08:55;;;;;;;22.65;6.68;;;8.40;99.90;;;;;;5066707;28;20028;-83
2021/03/18 11:11:29;;;;;;;21.75;6.03;;;8.20;99.90;;;;;;5076162;28;20167;-82
2021/03/18 11:14:04;;;;;;;17.88;4.65;;;8.20;99.90;;;;;;5077619;28;20037;-82
2021/03/18 11:16:31;;;;;;;17.88;5.88;;;8.40;99.90;;;;;;5072032;28;20079;-83
2021/03/18 11:19:03;;;;;;;21.83;5.20;;;8.80;99.90;;;;;;5071137;28;20025;-83
2021/03/18 11:21:31;;;;;;;28.42;5.85;;;9.50;99.90;;;;;;5052516;28;20032;-82
2021/03/18 11:24:18;;;;;;;24.17;6.03;;;10.10;98.40;;;;;;5070974;28;20021;-83
2021/03/18 11:26:49;;;;;;;22.73;5.32;;;10.80;96.80;;;;;;5072327;28;20024;-83
2021/03/18 11:29:17;;;;;;;16.90;4.40;;;11.70;94.90;;;;;;5071118;28;20037;-83
2021/03/18 11:31:49;;;;;;;18.55;4.97;;;11.90;91.60;;;;;;5079834;28;20480;-83
2021/03/18 11:34:22;;;;;;;21.67;6.22;;;11.70;91.50;;;;;;5097447;28;20020;-83
2021/03/18 11:36:50;;;;;;;23.83;5.68;;;10.90;91.50;;;;;;5080503;28;20036;-84
2021/03/18 11:39:16;;;;;;;21.15;5.45;;;10.20;92.40;;;;;;5074497;28;20027;-82
2021/03/18 11:41:42;;;;;;;21.25;5.22;;;9.70;94.30;;;;;;5107919;28;20017;-83
2021/03/18 11:44:08;;;;;;;19.50;5.75;;;9.40;95.10;;;;;;5108261;28;20126;-83
2021/03/18 11:46:33;;;;;;;30.10;6.88;;;9.10;95.80;;;;;;5075359;28;20095;-83
2021/03/18 11:48:59;;;;;;;21.83;6.05;;;8.90;96.60;;;;;;5074242;28;20472;-83
2021/03/18 11:51:25;;;;;;;24.90;5.88;;;8.90;97.10;;;;;;5075430;28;20480;-83
2021/03/18 11:53:51;;;;;;;18.20;5.40;;;8.90;96.70;;;;;;5074181;28;20021;-83
2021/03/18 11:56:17;;;;;;;21.67;6.45;;;8.60;96.70;;;;;;5107784;28;20025;-83
2021/03/18 11:58:43;;;;;;;18.75;5.25;;;8.60;97.20;;;;;;5075817;28;20024;-83
2021/03/18 12:01:09;;;;;;;21.70;6.32;;;8.50;97.70;;;;;;5107677;28;20038;-83
2021/03/18 12:03:35;;;;;;;29.65;7.15;;;8.60;98.20;;;;;;5076754;28;20123;-83
2021/03/18 12:06:01;;;;;;;29.60;7.22;;;8.60;98.10;;;;;;5108772;28;20028;-83
2021/03/18 12:08:26;;;;;;;26.02;7.63;;;8.50;98.40;;;;;;5084207;28;20496;-83
2021/03/18 12:10:52;;;;;;;23.58;7.15;;;8.50;98.90;;;;;;5084116;28;20551;-83
2021/03/18 12:13:18;;;;;;;23.08;7.30;;;8.40;99.10;;;;;;5084257;28;20741;-83
2021/03/18 12:15:44;;;;;;;25.55;7.15;;;8.40;99.30;;;;;;5083053;28;20016;-83
2021/03/18 12:18:09;;;;;;;24.25;6.65;;;8.40;99.90;;;;;;5090029;28;20020;-82
2021/03/18 12:20:38;;;;;;;25.52;6.82;;;8.40;99.50;;;;;;5093728;28;20039;-83
2021/03/18 12:23:03;;;;;;;24.67;6.78;;;8.40;99.40;;;;;;5110674;28;20016;-83
2021/03/18 12:25:29;;;;;;;25.23;6.45;;;8.30;99.90;;;;;;5093519;28;20085;-83
2021/03/18 12:27:55;;;;;;;25.40;7.85;;;8.30;99.90;;;;;;5093714;28;20026;-83
2021/03/18 12:30:22;;;;;;;28.48;7.93;;;8.20;99.70;;;;;;5091461;28;20020;-84
2021/03/18 12:32:49;;;;;;;22.08;6.68;;;8.30;99.90;;;;;;5089664;28;20335;-83
2021/03/18 12:35:17;;;;;;;24.38;6.45;;;8.40;99.90;;;;;;5107439;28;20036;-82
2021/03/18 12:37:44;;;;;;;25.25;8.10;;;8.40;99.90;;;;;;5073170;28;20488;-83
2021/03/18 12:40:10;;;;;;;22.45;7.10;;;8.40;99.90;;;;;;5074673;28;20032;-83
2021/03/18 12:42:36;;;;;;;26.60;7.03;;;8.50;99.90;;;;;;5106801;28;20437;-83
2021/03/18 12:45:02;;;;;;;20.45;7.05;;;8.60;99.70;;;;;;5071955;28;20082;-84
2021/03/18 12:47:28;;;;;;;24.08;6.75;;;8.60;99.50;;;;;;5074343;28;20138;-83
2021/03/18 12:49:53;;;;;;;23.73;6.97;;;8.60;99.40;;;;;;5074363;28;20608;-83
2021/03/18 12:52:20;;;;;;;22.92;6.63;;;8.70;99.10;;;;;;5072821;28;20074;-82
2021/03/18 12:54:45;;;;;;;19.88;5.47;;;8.80;98.60;;;;;;5072952;28;20024;-83
2021/03/18 12:57:11;;;;;;;23.23;5.90;;;8.80;98.50;;;;;;5072498;28;20553;-83
2021/03/18 12:59:37;;;;;;;21.92;7.50;;;8.70;97.90;;;;;;5072771;28;20484;-83
2021/03/18 13:02:03;;;;;;;28.95;8.13;;;8.60;97.60;;;;;;5072315;28;20029;-83
2021/03/18 13:04:29;;;;;;;31.27;7.72;;;8.60;97.90;;;;;;5072892;28;20098;-83